Time;durP1;ratioP1;P1;durP2;ratioP2;P2;SDS_P1;SDS_P2;PMS_P1;PMS_P2;Temp;Humidity;BMP_temperature;BMP_pressure;BME280_temperature;BME280_humidity;BME280_pressure;Samples;Min_cycle;Max_cycle;Signal;HPM_P1;HPM_P2
2022/05/26 00:01:31;;;;;;;3.13;1.30;;;;;;;17.52;63.31;99760.50;5051853;28;20269;-85
2022/05/26 00:03:58;;;;;;;1.40;1.10;;;;;;;17.51;63.60;99766.97;5050875;28;20637;-85
2022/05/26 00:06:25;;;;;;;1.40;1.00;;;;;;;17.39;64.18;99774.31;5051874;28;20570;-85
2022/05/26 00:08:53;;;;;;;6.15;0.90;;;;;;;17.41;64.31;99769.59;5051465;28;20191;-85
2022/05/26 00:11:23;;;;;;;3.13;1.17;;;;;;;17.38;64.91;99774.41;5051876;28;20622;-85
2022/05/26 00:13:50;;;;;;;2.25;1.20;;;;;;;17.28;65.50;99774.34;5050962;28;20201;-85
2022/05/26 00:16:18;;;;;;;2.65;1.00;;;;;;;17.20;66.27;99774.94;5051639;28;20277;-84
2022/05/26 00:18:45;;;;;;;1.60;1.30;;;;;;;17.38;65.47;99777.16;5051751;28;20290;-85
2022/05/26 00:21:12;;;;;;;2.03;1.10;;;;;;;17.39;65.36;99777.03;5053242;28;20310;-85
2022/05/26 00:23:39;;;;;;;2.00;0.93;;;;;;;17.29;65.89;99776.91;5055209;28;20190;-84
2022/05/26 00:26:07;;;;;;;2.45;1.63;;;;;;;17.18;66.69;99779.66;5055558;28;20201;-84
2022/05/26 00:28:33;;;;;;;2.47;1.40;;;;;;;17.07;67.62;99779.69;5055760;28;20273;-84
2022/05/26 00:31:00;;;;;;;3.00;1.40;;;;;;;17.21;67.44;99782.16;5055546;28;20192;-84
2022/05/26 00:33:27;;;;;;;5.40;2.78;;;;;;;17.18;67.32;99779.66;5056050;28;20202;-85
2022/05/26 00:35:54;;;;;;;6.78;3.53;;;;;;;17.09;67.91;99784.03;5055511;28;20205;-84
2022/05/26 00:38:21;;;;;;;6.25;3.20;;;;;;;17.08;67.90;99786.88;5055331;28;21007;-84
2022/05/26 00:40:48;;;;;;;3.47;2.33;;;;;;;17.02;68.42;99781.91;5054785;28;20197;-85
2022/05/26 00:43:16;;;;;;;5.45;2.53;;;;;;;17.09;68.15;99774.97;5055562;28;20189;-84
2022/05/26 00:45:50;;;;;;;4.65;2.67;;;;;;;17.13;67.83;99781.03;5055238;28;20845;-84
2022/05/26 00:48:21;;;;;;;4.65;2.67;;;;;;;16.99;68.57;99785.75;5055005;28;20194;-85
2022/05/26 00:50:52;;;;;;;4.63;2.20;;;;;;;16.94;69.06;99785.28;5054793;28;20195;-84
2022/05/26 00:53:24;;;;;;;5.10;2.10;;;;;;;17.00;69.05;99775.72;5054775;28;20185;-84
2022/05/26 00:55:56;;;;;;;5.03;2.05;;;;;;;17.17;67.99;99787.97;5054146;28;20189;-85
2022/05/26 00:58:29;;;;;;;4.78;2.08;;;;;;;17.06;68.71;99786.97;5053990;28;20194;-85
2022/05/26 01:00:57;;;;;;;3.05;1.60;;;;;;;17.05;68.73;99784.41;5054747;28;20191;-85
2022/05/26 01:03:30;;;;;;;3.20;1.80;;;;;;;16.84;69.86;99789.72;5054488;28;20185;-85
2022/05/26 01:06:01;;;;;;;7.30;2.40;;;;;;;16.98;69.28;99783.16;5054591;28;20208;-84
2022/05/26 01:08:34;;;;;;;3.35;2.00;;;;;;;17.16;68.13;99784.34;5054465;28;20192;-84
2022/05/26 01:11:00;;;;;;;5.32;3.13;;;;;;;16.96;69.52;99782.41;5054063;28;20192;-85
2022/05/26 01:13:31;;;;;;;5.95;2.70;;;;;;;17.00;69.20;99790.19;5053379;28;20640;-85
2022/05/26 01:16:04;;;;;;;8.15;4.38;;;;;;;16.80;70.56;99780.97;5053452;28;20196;-85
2022/05/26 01:18:41;;;;;;;7.78;3.63;;;;;;;16.87;70.61;99790.34;5054186;28;20192;-85
2022/05/26 01:21:13;;;;;;;7.88;3.47;;;;;;;16.99;69.83;99790.34;5054371;28;20190;-85
2022/05/26 01:24:11;;;;;;;4.78;3.20;;;;;;;16.93;70.46;99788.97;5053868;28;20182;-85
2022/05/26 01:27:07;;;;;;;6.35;2.75;;;;;;;16.84;71.07;99792.44;5037432;28;20201;-84
2022/05/26 01:30:13;;;;;;;5.78;2.53;;;;;;;16.75;72.16;99783.13;5053663;28;20186;-85
2022/05/26 01:32:57;;;;;;;3.22;2.10;;;;;;;16.78;71.93;99792.91;5053399;28;20181;-85
2022/05/26 01:35:30;;;;;;;3.58;1.80;;;;;;;16.81;72.02;99796.28;5054275;28;20191;-85
2022/05/26 01:38:14;;;;;;;5.53;2.42;;;;;;;16.83;71.67;99794.31;5053663;28;20188;-84
2022/05/26 01:40:53;;;;;;;6.70;2.58;;;;;;;16.68;72.87;99781.91;5054034;28;20527;-85
2022/05/26 01:43:28;;;;;;;5.68;2.30;;;;;;;16.75;72.39;99785.84;5053723;28;20189;-85
2022/05/26 01:46:02;;;;;;;5.40;2.30;;;;;;;16.71;72.62;99787.13;5054077;28;20958;-84
2022/05/26 01:48:36;;;;;;;10.43;3.08;;;;;;;16.62;73.70;99785.13;5053334;28;20626;-84
2022/05/26 01:51:09;;;;;;;3.10;1.50;;;;;;;16.54;74.52;99785.75;5053743;28;20250;-84
2022/05/26 01:53:44;;;;;;;3.58;1.77;;;;;;;16.56;74.97;99794.66;5053690;28;20189;-85
2022/05/26 01:56:19;;;;;;;1.70;1.40;;;;;;;16.52;75.38;99787.72;5054139;28;20523;-84
2022/05/26 01:58:50;;;;;;;4.85;1.55;;;;;;;16.58;75.39;99795.38;5053095;28;20281;-85
2022/05/26 02:01:23;;;;;;;3.92;1.60;;;;;;;16.59;75.31;99796.25;5053136;28;20189;-85
2022/05/26 02:03:52;;;;;;;2.70;1.50;;;;;;;16.59;75.85;99783.50;5052643;28;20201;-85
2022/05/26 02:06:24;;;;;;;4.00;1.52;;;;;;;16.53;76.39;99789.47;5053333;28;20607;-84
2022/05/26 02:08:56;;;;;;;1.85;1.25;;;;;;;16.45;77.47;99792.78;5053052;28;20196;-84
2022/05/26 02:11:24;;;;;;;2.78;1.25;;;;;;;16.36;78.60;99785.34;5052978;28;20276;-85
2022/05/26 02:13:55;;;;;;;2.35;1.10;;;;;;;16.33;78.99;99791.03;5053286;28;20193;-85
2022/05/26 02:16:29;;;;;;;1.73;1.00;;;;;;;16.43;78.30;99792.03;5053633;28;20276;-84
2022/05/26 02:19:02;;;;;;;1.60;1.10;;;;;;;16.47;77.99;99788.09;5052567;28;20280;-85
2022/05/26 02:21:32;;;;;;;3.65;1.20;;;;;;;16.42;77.80;99789.44;5053245;28;20196;-85
2022/05/26 02:24:06;;;;;;;2.15;1.10;;;;;;;16.33;78.39;99793.75;5052571;28;20619;-85
2022/05/26 02:26:34;;;;;;;1.75;1.10;;;;;;;16.41;78.14;99787.72;5032844;28;20193;-84
2022/05/26 02:31:48;;;;;;;1.65;1.00;;;;;;;16.23;79.98;99790.03;5033151;28;20276;-85
2022/05/26 02:34:19;;;;;;;2.65;0.88;;;;;;;16.28;80.01;99793.25;5032726;28;20202;-85
2022/05/26 02:36:47;;;;;;;2.90;1.23;;;;;;;16.17;81.10;99793.25;5032929;28;20194;-86
2022/05/26 02:39:14;;;;;;;2.05;1.25;;;;;;;16.21;81.01;99787.44;5045931;28;20209;-84
2022/05/26 02:41:41;;;;;;;1.77;1.20;;;;;;;16.12;82.21;99796.28;5052689;28;20208;-85
2022/05/26 02:44:10;;;;;;;2.50;1.02;;;;;;;16.25;81.46;99791.63;5052018;28;20190;-86
2022/05/26 02:46:55;;;;;;;1.80;1.10;;;;;;;16.19;82.31;99793.97;5052886;28;20189;-85
2022/05/26 02:49:41;;;;;;;2.15;1.10;;;;;;;16.15;83.21;99792.50;5051600;28;20182;-85
2022/05/26 02:52:21;;;;;;;2.10;0.98;;;;;;;16.08;84.65;99786.66;5052134;28;20229;-85
2022/05/26 02:54:59;;;;;;;5.32;1.38;;;;;;;15.93;86.17;99790.56;5052824;28;20520;-85
2022/05/26 02:57:35;;;;;;;1.42;0.90;;;;;;;15.84;87.35;99789.44;5052404;28;20189;-85
2022/05/26 03:00:06;;;;;;;3.38;1.20;;;;;;;15.86;87.69;99784.75;5052402;28;20212;-85
2022/05/26 03:02:40;;;;;;;2.13;1.17;;;;;;;15.82;88.25;99794.09;5052675;28;20196;-84
2022/05/26 03:05:15;;;;;;;2.53;1.20;;;;;;;15.89;88.04;99789.94;5052299;28;20642;-84
2022/05/26 03:07:45;;;;;;;2.65;1.40;;;;;;;15.90;87.66;99794.41;5052539;28;20200;-85
2022/05/26 03:10:13;;;;;;;2.38;1.33;;;;;;;15.86;87.91;99792.03;5052899;28;20189;-85
2022/05/26 03:12:39;;;;;;;3.35;1.02;;;;;;;15.98;86.53;99797.38;5052042;28;20181;-85
2022/05/26 03:15:09;;;;;;;13.65;1.65;;;;;;;15.93;86.73;99794.16;5052941;28;20200;-85
2022/05/26 03:17:36;;;;;;;2.22;1.00;;;;;;;15.87;87.30;99793.75;5052599;28;20879;-82
2022/05/26 03:20:03;;;;;;;1.85;1.30;;;;;;;15.83;87.87;99795.84;5051422;28;20263;-85
2022/05/26 03:22:31;;;;;;;1.85;1.58;;;;;;;15.90;87.32;99791.69;5052110;28;20201;-85
2022/05/26 03:24:58;;;;;;;1.33;0.80;;;;;;;16.05;86.11;99797.75;5051998;28;20293;-84
2022/05/26 03:27:25;;;;;;;1.83;1.23;;;;;;;16.03;86.21;99805.16;5052501;28;20726;-85
2022/05/26 03:29:51;;;;;;;1.55;1.08;;;;;;;15.92;87.47;99811.44;5051759;28;20185;-85
2022/05/26 03:32:19;;;;;;;1.15;0.90;;;;;;;15.79;88.26;99819.66;5052375;28;20186;-85
2022/05/26 03:43:00;;;;;;;4.65;1.30;;;;;;;16.00;87.27;99818.97;5051889;28;20263;-85
2022/05/26 03:45:28;;;;;;;2.40;1.50;;;;;;;16.12;86.86;99809.00;5051631;28;20236;-85
2022/05/26 03:47:55;;;;;;;3.75;1.65;;;;;;;16.04;87.59;99810.47;5051705;28;20554;-85
2022/05/26 03:50:21;;;;;;;4.78;1.40;;;;;;;15.99;88.11;99817.28;5051804;28;20182;-85
2022/05/26 03:52:51;;;;;;;2.22;1.25;;;;;;;15.83;90.10;99825.72;5051377;28;20591;-85
2022/05/26 03:55:18;;;;;;;3.20;1.20;;;;;;;16.05;88.71;99820.38;5051796;28;20228;-85
2022/05/26 03:57:44;;;;;;;4.78;1.40;;;;;;;16.19;87.82;99812.97;5055338;28;20185;-85
2022/05/26 04:00:13;;;;;;;2.13;1.30;;;;;;;16.23;87.36;99819.91;5055367;28;20212;-85
2022/05/26 04:02:39;;;;;;;2.83;1.20;;;;;;;16.22;88.04;99818.19;5055459;28;20199;-85
2022/05/26 04:05:08;;;;;;;1.40;1.10;;;;;;;16.15;89.11;99819.66;5055775;28;20703;-85
2022/05/26 04:07:35;;;;;;;2.78;1.35;;;;;;;16.19;88.87;99822.00;5055757;28;20203;-85
2022/05/26 04:10:04;;;;;;;3.55;1.60;;;;;;;16.14;89.35;99820.63;5055341;28;20220;-85
2022/05/26 04:12:30;;;;;;;3.85;1.33;;;;;;;16.21;89.17;99821.88;5055759;28;20536;-85
2022/05/26 04:14:57;;;;;;;5.43;1.45;;;;;;;16.18;89.08;99822.97;5055571;28;20205;-85
2022/05/26 04:17:24;;;;;;;2.35;1.33;;;;;;;16.09;90.79;99826.41;5055785;28;20193;-85
2022/05/26 04:19:50;;;;;;;6.60;1.60;;;;;;;16.16;90.34;99834.97;5055104;28;20205;-84
2022/05/26 04:22:18;;;;;;;3.90;1.35;;;;;;;16.37;88.33;99832.41;5055525;28;20208;-85
2022/05/26 04:24:46;;;;;;;2.63;1.50;;;;;;;16.41;87.85;99836.63;5055215;28;20189;-85
2022/05/26 04:27:14;;;;;;;2.97;1.48;;;;;;;16.38;88.03;99828.72;5055284;28;20194;-84
2022/05/26 04:29:41;;;;;;;2.38;1.63;;;;;;;16.33;88.10;99839.09;5055309;28;20205;-85
2022/05/26 04:32:08;;;;;;;5.00;1.52;;;;;;;16.41;87.72;99836.63;5055006;28;20190;-83
2022/05/26 04:34:54;;;;;;;2.85;1.40;;;;;;;16.49;87.00;99838.75;5052178;28;20565;-82
2022/05/26 04:37:24;;;;;;;4.38;1.60;;;;;;;16.39;86.90;99839.47;5047246;28;20193;-84
2022/05/26 04:39:51;;;;;;;2.05;1.30;;;;;;;16.25;88.45;99850.53;5055540;28;20228;-84
2022/05/26 04:42:19;;;;;;;3.45;1.38;;;;;;;16.50;86.68;99851.34;5055291;28;20829;-85
2022/05/26 04:44:46;;;;;;;4.88;1.95;;;;;;;16.45;87.17;99854.41;5048577;28;20218;-85
2022/05/26 04:47:14;;;;;;;3.63;1.60;;;;;;;16.29;88.34;99862.06;5035033;28;20206;-85
2022/05/26 04:49:42;;;;;;;3.35;1.63;;;;;;;16.27;88.96;99862.16;5047488;28;20189;-84
2022/05/26 04:52:11;;;;;;;4.63;2.10;;;;;;;16.38;87.59;99873.06;5054493;28;20323;-84
2022/05/26 04:54:38;;;;;;;3.47;1.75;;;;;;;16.14;90.10;99864.09;5054892;28;20185;-84
2022/05/26 04:57:05;;;;;;;2.28;1.45;;;;;;;16.20;89.92;99867.19;5054952;28;20201;-85
2022/05/26 04:59:34;;;;;;;4.00;1.25;;;;;;;16.53;87.41;99871.00;5054734;28;20185;-85
2022/05/26 05:02:01;;;;;;;2.45;1.70;;;;;;;16.31;88.75;99871.81;5054849;28;20296;-84
2022/05/26 05:04:28;;;;;;;1.63;1.40;;;;;;;16.40;88.63;99872.94;5054379;28;20194;-84
2022/05/26 05:06:55;;;;;;;3.85;1.40;;;;;;;16.27;90.30;99873.03;5039819;28;20267;-85
2022/05/26 05:09:23;;;;;;;4.50;1.75;;;;;;;16.24;90.90;99879.56;5033626;28;20543;-86
2022/05/26 05:11:53;;;;;;;1.60;1.40;;;;;;;16.28;90.21;99885.66;5034149;28;20206;-84
2022/05/26 05:14:20;;;;;;;2.15;1.55;;;;;;;16.38;89.70;99888.50;5033901;28;20197;-85
2022/05/26 05:16:48;;;;;;;4.45;1.40;;;;;;;16.45;89.24;99882.47;5034013;28;20648;-85
2022/05/26 05:19:16;;;;;;;3.20;1.55;;;;;;;16.53;88.64;99886.41;5037888;28;20273;-84
2022/05/26 05:21:48;;;;;;;2.42;1.70;;;;;;;16.59;88.94;99894.09;5052848;28;20581;-83
2022/05/26 05:24:19;;;;;;;3.38;2.03;;;;;;;16.87;87.14;99890.97;5054079;28;20198;-84
2022/05/26 05:26:50;;;;;;;4.20;1.65;;;;;;;16.96;85.75;99891.22;5054073;28;20208;-84
2022/05/26 05:29:20;;;;;;;2.33;1.90;;;;;;;17.06;84.37;99892.22;5053876;28;20678;-86
2022/05/26 05:31:55;;;;;;;3.15;1.33;;;;;;;17.19;83.44;99903.84;5053502;28;20188;-83
2022/05/26 05:34:26;;;;;;;2.50;1.65;;;;;;;16.96;84.30;99902.97;5054159;28;20612;-85
2022/05/26 05:36:53;;;;;;;4.05;1.98;;;;;;;17.22;83.10;99902.72;5056724;28;20217;-83
2022/05/26 05:39:20;;;;;;;3.50;1.95;;;;;;;17.31;82.57;99907.41;5054136;28;20273;-84
2022/05/26 05:41:46;;;;;;;1.92;1.60;;;;;;;17.45;81.14;99903.56;5052311;28;20248;-83
2022/05/26 05:44:13;;;;;;;8.85;1.80;;;;;;;17.21;82.34;99906.44;5035021;28;20190;-83
2022/05/26 05:49:34;;;;;;;2.35;1.50;;;;;;;17.43;81.55;99916.44;5153501;27;20512;-84
2022/05/26 05:52:09;;;;;;;4.05;1.55;;;;;;;17.33;82.79;99915.47;5155262;27;20604;-83
2022/05/26 05:54:36;;;;;;;2.05;1.65;;;;;;;17.56;81.48;99917.16;5153336;27;20182;-84
2022/05/26 05:57:03;;;;;;;3.03;1.55;;;;;;;17.50;81.64;99925.81;5151980;27;20195;-84
2022/05/26 05:59:30;;;;;;;2.13;1.50;;;;;;;16.84;86.52;99921.13;5152458;27;20185;-85
2022/05/26 06:01:57;;;;;;;1.95;1.35;;;;;;;16.88;86.58;99928.03;5152508;27;20260;-84
2022/05/26 06:04:23;;;;;;;3.35;2.08;;;;;;;17.25;85.29;99924.25;5152671;27;20193;-84
2022/05/26 06:06:54;;;;;;;3.45;1.25;;;;;;;17.00;86.71;99931.66;5153491;27;20179;-84
2022/05/26 06:09:21;;;;;;;3.95;2.53;;;;;;;17.13;86.89;99930.69;5151748;27;20220;-84
2022/05/26 06:11:49;;;;;;;3.67;1.50;;;;;;;17.41;84.66;99934.75;5151547;27;20205;-85
2022/05/26 06:14:16;;;;;;;2.30;1.30;;;;;;;17.75;81.59;99943.75;5151171;27;20189;-84
2022/05/26 06:16:44;;;;;;;2.15;1.60;;;;;;;17.72;81.08;99944.00;5151918;27;20529;-84
2022/05/26 06:19:11;;;;;;;3.05;1.55;;;;;;;17.81;81.77;99947.81;5151212;27;20231;-85
2022/05/26 06:21:38;;;;;;;2.75;1.50;;;;;;;17.82;82.08;99952.28;5150972;27;20180;-84
2022/05/26 06:24:07;;;;;;;3.72;1.33;;;;;;;17.56;83.91;99955.28;5151216;27;20212;-84
2022/05/26 06:26:34;;;;;;;2.80;1.40;;;;;;;17.42;87.12;99950.09;5150900;27;20213;-83
2022/05/26 06:37:13;;;;;;;3.15;1.42;;;;;;;17.29;90.85;99956.53;5151460;27;20194;-84
2022/05/26 06:37:16;;;;;;;3.05;1.40;;;;;;;16.98;99.55;99958.13;5150507;27;20178;-84
2022/05/26 06:39:45;;;;;;;3.95;1.80;;;;;;;16.92;100.00;99966.75;5150561;27;20198;-84
2022/05/26 06:42:11;;;;;;;2.40;1.30;;;;;;;17.12;100.00;99972.47;5148473;27;20633;-84
2022/05/26 06:44:39;;;;;;;1.90;1.50;;;;;;;17.21;100.00;99978.06;5167258;27;20190;-84
2022/05/26 06:47:08;;;;;;;4.82;1.52;;;;;;;17.23;98.44;99981.53;5167428;27;20190;-83
2022/05/26 06:49:36;;;;;;;1.77;1.40;;;;;;;16.91;100.00;99980.47;5150183;27;20586;-84
2022/05/26 06:52:03;;;;;;;2.45;1.50;;;;;;;16.94;100.00;99974.81;5150535;27;20590;-84
2022/05/26 06:54:34;;;;;;;6.00;1.55;;;;;;;17.29;100.00;99981.00;5150270;27;20199;-84
2022/05/26 06:57:03;;;;;;;3.38;1.02;;;;;;;17.40;99.04;99982.88;5147085;27;20194;-84
2022/05/26 06:59:30;;;;;;;6.18;1.60;;;;;;;16.92;100.00;99983.09;5134873;27;20191;-85
2022/05/26 07:01:57;;;;;;;2.83;1.60;;;;;;;17.03;100.00;99988.53;5136316;27;20211;-85
2022/05/26 07:04:24;;;;;;;1.75;1.02;;;;;;;17.25;100.00;99992.28;5136111;27;20193;-85
2022/05/26 07:06:52;;;;;;;2.33;1.42;;;;;;;17.16;100.00;99998.44;5136683;27;20189;-85
2022/05/26 07:09:20;;;;;;;2.15;1.20;;;;;;;17.19;100.00;99999.09;5136414;27;20568;-84
2022/05/26 07:11:47;;;;;;;2.78;1.48;;;;;;;17.22;100.00;99998.81;5121763;27;22011;-84
2022/05/26 07:14:15;;;;;;;1.60;1.40;;;;;;;17.00;100.00;100001.50;5118732;27;20206;-85
2022/05/26 07:16:45;;;;;;;4.53;1.80;;;;;;;16.74;100.00;100000.81;5123572;27;20240;-85
2022/05/26 07:19:12;;;;;;;3.90;1.50;;;;;;;16.82;100.00;100001.97;5134924;27;20279;-84
2022/05/26 07:21:39;;;;;;;2.42;1.50;;;;;;;16.77;100.00;100003.28;5136065;27;20509;-83
2022/05/26 07:24:06;;;;;;;1.60;1.20;;;;;;;16.89;100.00;100005.06;5148976;27;20199;-84
2022/05/26 07:26:34;;;;;;;6.95;1.60;;;;;;;16.91;100.00;99999.50;5157102;27;20273;-84
2022/05/26 07:29:01;;;;;;;1.58;1.35;;;;;;;16.92;100.00;99999.41;5156744;27;20604;-84
2022/05/26 07:31:29;;;;;;;2.58;1.10;;;;;;;17.45;99.38;100001.56;5156310;27;20190;-84
2022/05/26 07:33:56;;;;;;;2.83;1.50;;;;;;;18.06;93.10;100004.75;5123420;27;20566;-83
2022/05/26 07:41:56;;;;;;;5.00;1.23;;;;;;;17.43;96.76;100011.69;5133368;27;21049;-84
2022/05/26 07:47:46;;;;;;;2.33;1.20;;;;;;;17.94;92.79;100013.94;5114168;27;20283;-84
2022/05/26 07:50:20;;;;;;;2.85;1.70;;;;;;;18.16;91.37;100012.16;5112832;28;20192;-85
2022/05/26 07:52:47;;;;;;;3.55;1.30;;;;;;;17.73;92.20;100005.66;5114418;28;20193;-85
2022/05/26 07:55:14;;;;;;;3.55;1.23;;;;;;;18.01;90.52;100019.75;5114406;28;20198;-85
2022/05/26 07:57:40;;;;;;;3.33;1.20;;;;;;;18.32;87.63;100031.72;5115348;28;20637;-85
2022/05/26 08:00:08;;;;;;;3.95;1.48;;;;;;;18.46;86.20;100031.41;5114730;28;20524;-85
2022/05/26 08:02:35;;;;;;;2.22;1.20;;;;;;;18.51;84.95;100034.59;5114140;28;20603;-85
2022/05/26 08:05:03;;;;;;;1.50;1.23;;;;;;;18.54;84.58;100033.47;5114359;28;20671;-86
2022/05/26 08:07:30;;;;;;;2.00;1.30;;;;;;;18.43;82.71;100041.69;5115147;28;20198;-86
2022/05/26 08:09:56;;;;;;;5.25;1.40;;;;;;;18.44;84.01;100032.53;5113805;28;20300;-85
2022/05/26 08:12:23;;;;;;;2.42;1.50;;;;;;;18.71;79.84;100034.78;5113489;28;20202;-84
2022/05/26 08:14:49;;;;;;;3.47;1.40;;;;;;;18.47;80.58;100032.28;5114151;28;20276;-85
2022/05/26 08:17:20;;;;;;;3.10;1.30;;;;;;;18.87;79.69;100032.50;5134816;27;20192;-86
2022/05/26 08:19:46;;;;;;;4.07;1.40;;;;;;;19.27;77.01;100037.25;5134974;27;20216;-85
2022/05/26 08:22:16;;;;;;;2.20;1.40;;;;;;;19.59;74.75;100044.47;5134452;27;20187;-85
2022/05/26 08:24:43;;;;;;;2.17;1.20;;;;;;;19.06;76.51;100056.38;5136732;27;20627;-86
2022/05/26 08:27:09;;;;;;;4.00;1.75;;;;;;;18.47;77.26;100054.06;5136129;27;20205;-86
2022/05/26 08:29:38;;;;;;;4.60;1.65;;;;;;;17.97;80.26;100059.16;5136975;27;20211;-86
2022/05/26 08:32:06;;;;;;;2.45;1.35;;;;;;;18.29;77.62;100051.03;5135185;27;20211;-86
2022/05/26 08:34:32;;;;;;;3.08;1.27;;;;;;;18.48;76.79;100053.09;5134162;27;20188;-86
2022/05/26 08:36:59;;;;;;;3.05;1.35;;;;;;;18.93;74.08;100053.81;5134406;27;20624;-86
2022/05/26 08:39:27;;;;;;;2.67;1.30;;;;;;;19.38;71.77;100050.81;5134482;27;20210;-86
2022/05/26 08:41:54;;;;;;;2.38;1.00;;;;;;;19.97;68.42;100056.59;5135287;27;20247;-86
2022/05/26 08:44:27;;;;;;;4.23;1.97;;;;;;;19.75;68.57;100055.78;5134149;27;20191;-85
2022/05/26 08:47:01;;;;;;;2.08;1.30;;;;;;;19.86;64.84;100049.34;5134160;27;20428;-85
2022/05/26 08:49:34;;;;;;;2.30;1.20;;;;;;;19.45;67.54;100058.47;5133302;27;20265;-86
2022/05/26 08:52:06;;;;;;;1.83;1.08;;;;;;;19.10;70.32;100067.84;5133896;27;20424;-86
2022/05/26 08:54:39;;;;;;;1.92;1.40;;;;;;;18.84;70.58;100062.78;5133713;27;20189;-86
2022/05/26 08:57:09;;;;;;;4.40;1.45;;;;;;;19.28;69.85;100070.84;5133566;27;20685;-86
2022/05/26 08:59:40;;;;;;;3.25;1.67;;;;;;;19.08;70.52;100076.16;5133591;27;20193;-85
2022/05/26 09:02:22;;;;;;;2.40;1.45;;;;;;;19.52;66.79;100063.25;5133997;27;20238;-86
2022/05/26 09:04:49;;;;;;;2.63;1.10;;;;;;;19.29;66.90;100075.34;5134970;27;20186;-85
2022/05/26 09:12:57;;;;;;;2.60;1.50;;;;;;;19.75;65.00;100085.81;5133407;27;20326;-86
2022/05/26 09:15:24;;;;;;;1.98;1.50;;;;;;;20.17;60.93;100080.25;5134463;27;20190;-85
2022/05/26 09:17:50;;;;;;;3.35;1.83;;;;;;;20.36;58.61;100084.91;5133990;27;20555;-85
2022/05/26 09:20:31;;;;;;;3.87;1.70;;;;;;;20.05;61.32;100084.06;5133382;27;20189;-85
2022/05/26 09:23:24;;;;;;;2.87;1.50;;;;;;;20.34;60.97;100091.50;5133304;27;20922;-86
2022/05/26 09:25:54;;;;;;;4.78;1.60;;;;;;;20.00;60.65;100086.38;5133308;27;20424;-86
2022/05/26 09:28:30;;;;;;;1.50;1.40;;;;;;;19.41;66.05;100097.97;5133826;27;20601;-84
2022/05/26 09:30:57;;;;;;;3.03;1.70;;;;;;;19.35;67.82;100100.22;5133566;27;20431;-85
2022/05/26 09:33:31;;;;;;;2.60;1.43;;;;;;;19.30;63.87;100101.63;5133178;27;20442;-86
2022/05/26 09:36:16;;;;;;;2.50;1.95;;;;;;;18.85;65.22;100107.28;5132920;27;20438;-85
2022/05/26 09:38:43;;;;;;;4.40;1.67;;;;;;;19.16;63.90;100103.69;5132872;27;20231;-85
2022/05/26 09:41:16;;;;;;;3.60;1.53;;;;;;;19.51;62.38;100113.41;5133989;27;20617;-85
2022/05/26 09:43:49;;;;;;;2.90;1.70;;;;;;;19.36;63.62;100112.03;5133762;27;20918;-85
2022/05/26 09:46:17;;;;;;;2.35;2.05;;;;;;;19.89;63.42;100114.66;5133776;28;20431;-86
2022/05/26 09:48:46;;;;;;;2.20;1.88;;;;;;;19.98;63.95;100111.09;5133447;28;20759;-85
2022/05/26 09:51:21;;;;;;;3.10;1.47;;;;;;;20.30;59.91;100103.72;5133381;28;20197;-85
2022/05/26 09:53:48;;;;;;;2.33;1.50;;;;;;;19.65;64.07;100114.94;5133599;28;20423;-85
2022/05/26 09:56:30;;;;;;;4.05;1.65;;;;;;;20.12;62.55;100119.94;5133489;28;20205;-86
2022/05/26 09:58:56;;;;;;;3.13;1.50;;;;;;;19.86;61.17;100117.66;5133121;28;20182;-85
2022/05/26 10:01:41;;;;;;;2.13;1.20;;;;;;;20.11;57.39;100120.94;5133346;28;20632;-85
2022/05/26 10:04:20;;;;;;;2.57;1.07;;;;;;;20.09;58.29;100118.34;5133116;28;20315;-85
2022/05/26 10:06:55;;;;;;;2.33;1.23;;;;;;;20.26;56.33;100121.41;5132815;28;20428;-85
2022/05/26 10:09:32;;;;;;;4.70;2.33;;;;;;;19.75;54.36;100126.81;5133857;28;20984;-85
2022/05/26 10:12:07;;;;;;;3.70;1.63;;;;;;;20.14;54.43;100123.38;5135665;28;20478;-85
2022/05/26 10:15:00;;;;;;;4.17;1.23;;;;;;;20.16;54.56;100124.97;5135140;28;20782;-84
2022/05/26 10:17:43;;;;;;;3.10;1.43;;;;;;;20.29;53.55;100116.53;5111222;28;20931;-85
2022/05/26 10:20:21;;;;;;;2.93;1.60;;;;;;;19.98;55.95;100119.28;5113812;28;20461;-84
2022/05/26 10:22:57;;;;;;;3.10;1.30;;;;;;;19.52;55.83;100119.75;5115597;28;20428;-84
2022/05/26 10:25:35;;;;;;;2.70;1.20;;;;;;;20.08;54.61;100124.81;5119243;28;20439;-85
2022/05/26 10:28:32;;;;;;;2.47;1.30;;;;;;;20.79;53.21;100119.28;5133917;28;20444;-84
2022/05/26 10:31:11;;;;;;;3.20;1.40;;;;;;;20.95;51.87;100126.06;5135045;28;20501;-84
2022/05/26 10:33:51;;;;;;;2.30;1.40;;;;;;;20.57;53.48;100114.06;5132132;27;20445;-86
2022/05/26 10:36:24;;;;;;;3.23;1.27;;;;;;;20.47;53.32;100114.00;5118062;28;20512;-85
2022/05/26 10:39:08;;;;;;;2.03;1.63;;;;;;;20.34;54.26;100121.59;5118363;27;20923;-85
2022/05/26 10:41:41;;;;;;;3.77;1.20;;;;;;;20.03;53.32;100116.16;5117750;28;20433;-82
2022/05/26 10:44:20;;;;;;;1.50;1.03;;;;;;;20.65;51.40;100116.09;5116873;28;20433;-84
2022/05/26 10:46:53;;;;;;;3.03;1.40;;;;;;;20.67;53.08;100114.06;5122852;27;20446;-85
2022/05/26 10:49:26;;;;;;;3.20;1.53;;;;;;;20.92;52.99;100123.63;5135987;27;20512;-84
2022/05/26 10:51:57;;;;;;;3.47;1.80;;;;;;;21.27;52.75;100128.50;5137696;27;20434;-84
2022/05/26 10:54:39;;;;;;;3.23;1.70;;;;;;;21.48;51.75;100122.03;5138553;27;20425;-85
2022/05/26 10:57:11;;;;;;;3.03;1.47;;;;;;;21.29;53.13;100129.22;5137871;27;20436;-84
2022/05/26 10:59:44;;;;;;;2.63;1.70;;;;;;;21.64;52.27;100127.78;5136377;27;20428;-85
2022/05/26 11:02:19;;;;;;;2.30;1.50;;;;;;;21.74;52.45;100125.00;5137677;27;20547;-87
2022/05/26 11:04:52;;;;;;;4.57;1.57;;;;;;;21.58;50.76;100110.03;5138084;27;20787;-87
2022/05/26 11:07:27;;;;;;;2.23;1.73;;;;;;;21.96;49.96;100096.38;5137816;27;20432;-86
2022/05/26 11:09:57;;;;;;;1.90;1.40;;;;;;;22.26;49.71;100107.06;5136739;27;20464;-86
2022/05/26 11:12:31;;;;;;;7.77;1.87;;;;;;;22.22;48.84;100102.06;5136515;27;20759;-86
2022/05/26 11:17:53;;;;;;;4.20;1.60;;;;;;;21.97;47.82;100098.09;5136472;27;20764;-87
2022/05/26 11:20:23;;;;;;;6.50;1.60;;;;;;;21.49;47.74;100101.84;5135950;27;20440;-88
2022/05/26 11:22:51;;;;;;;3.10;1.80;;;;;;;20.60;48.83;100098.22;5136196;27;20519;-86
2022/05/26 11:25:27;;;;;;;3.70;1.90;;;;;;;20.24;50.94;100091.50;5136220;27;20455;-86
2022/05/26 11:27:57;;;;;;;3.20;2.47;;;;;;;20.59;49.97;100088.28;5136004;27;20447;-87
2022/05/26 11:36:12;;;;;;;2.47;1.40;;;;;;;21.61;45.50;100087.81;5135836;27;20412;-87
2022/05/26 11:38:44;;;;;;;4.53;1.30;;;;;;;22.11;44.71;100092.09;5135299;27;20432;-87
2022/05/26 11:41:15;;;;;;;3.90;1.80;;;;;;;21.94;41.66;100093.78;5133687;27;20436;-87
2022/05/26 11:43:45;;;;;;;2.93;1.67;;;;;;;22.25;41.42;100099.88;5135239;27;20428;-86
2022/05/26 11:46:50;;;;;;;2.83;2.30;;;;;;;21.84;42.64;100087.44;5135158;27;20413;-87
2022/05/26 11:49:59;;;;;;;3.23;1.27;;;;;;;22.01;43.59;100092.16;5134854;27;20536;-87
2022/05/26 11:52:28;;;;;;;2.50;1.53;;;;;;;22.12;43.72;100091.09;5052753;27;20435;-87
2022/05/26 11:55:10;;;;;;;2.50;1.30;;;;;;;21.91;44.08;100088.59;5135522;27;21314;-86
2022/05/26 11:57:38;;;;;;;5.30;1.83;;;;;;;22.13;44.77;100091.97;5134757;27;20444;-87
2022/05/26 12:00:20;;;;;;;4.07;1.50;;;;;;;21.39;46.63;100094.50;5134402;27;20534;-86
2022/05/26 12:02:51;;;;;;;2.47;1.23;;;;;;;21.04;47.30;100101.41;5134982;27;20519;-87
2022/05/26 12:05:48;;;;;;;2.20;1.80;;;;;;;21.30;47.14;100094.47;5135394;27;20439;-86
2022/05/26 12:08:38;;;;;;;3.13;1.60;;;;;;;21.59;46.11;100095.31;5126268;27;20427;-86
2022/05/26 12:11:09;;;;;;;2.83;1.60;;;;;;;21.49;45.88;100091.75;5151934;27;20549;-86
2022/05/26 12:13:38;;;;;;;3.60;1.87;;;;;;;21.32;46.49;100096.06;5135211;27;20459;-86
2022/05/26 12:16:23;;;;;;;2.53;1.60;;;;;;;21.02;48.59;100094.38;5135159;27;20451;-85
2022/05/26 12:18:54;;;;;;;3.20;2.03;;;;;;;21.44;48.51;100102.28;5136153;27;20890;-86
2022/05/26 12:21:41;;;;;;;4.23;1.80;;;;;;;21.54;47.12;100105.88;5135158;27;20428;-86
2022/05/26 12:24:41;;;;;;;2.80;1.47;;;;;;;21.56;47.01;100103.84;5134393;27;20788;-86
2022/05/26 12:27:08;;;;;;;1.87;1.73;;;;;;;21.29;47.93;100095.50;5134501;27;20423;-85
2022/05/26 12:30:01;;;;;;;4.20;1.70;;;;;;;21.43;47.19;100098.66;5133240;27;20483;-84
2022/05/26 12:32:33;;;;;;;2.47;1.50;;;;;;;21.37;48.74;100101.09;5110287;27;20775;-86